Home > Products > Valid Products > TAF

000
FTUS44 KJAN 251100
TAFMEI
TAF
KMEI 251126Z 2512/2612 00000KT 6SM BR SKC
     FM251400 32006KT P6SM SKC
     FM260900 00000KT 6SM BR SKC=



000
FTUS44 KJAN 251100
TAFHBG
TAF
KHBG 251126Z 2512/2612 00000KT 6SM BR SKC
     FM251400 34005KT P6SM SKC
     FM260900 00000KT 6SM BR SKC=



000
FTUS44 KJAN 251100
TAFGWO
TAF
KGWO 251126Z 2512/2612 00000KT 6SM BR SKC
     FM251400 26006KT P6SM SKC
     FM261000 00000KT 6SM BR SKC=



000
FTUS44 KJAN 251100
TAFGLH
TAF
KGLH 251126Z 2512/2612 VRB03KT 6SM BR SKC
     FM251400 26008KT P6SM SKC
     FM261000 00000KT 6SM BR SKC=



000
FTUS44 KJAN 251100
TAFJAN
TAF
KJAN 251126Z 2512/2612 VRB03KT 6SM BR SKC
     FM251400 31005KT P6SM SKC=



000
FTUS44 KJAN 251100
TAFGWO
TAF
KGWO 251126Z 2512/2612 00000KT 6SM BR SKC
     FM251400 26006KT P6SM SKC
     FM261000 00000KT 6SM BR SKC=



000
FTUS44 KJAN 251100
TAFGLH
TAF
KGLH 251126Z 2512/2612 VRB03KT 6SM BR SKC
     FM251400 26008KT P6SM SKC
     FM261000 00000KT 6SM BR SKC=



000
FTUS44 KJAN 251100
TAFMEI
TAF
KMEI 251126Z 2512/2612 00000KT 6SM BR SKC
     FM251400 32006KT P6SM SKC
     FM260900 00000KT 6SM BR SKC=



000
FTUS44 KJAN 251100
TAFHBG
TAF
KHBG 251126Z 2512/2612 00000KT 6SM BR SKC
     FM251400 34005KT P6SM SKC
     FM260900 00000KT 6SM BR SKC=



000
FTUS44 KJAN 251100
TAFJAN
TAF
KJAN 251126Z 2512/2612 VRB03KT 6SM BR SKC
     FM251400 31005KT P6SM SKC=



000
FTUS44 KJAN 250500
TAFJAN
TAF
KJAN 250529Z 2506/2606 VRB03KT P6SM SCT250
     FM251100 VRB03KT 6SM BR SCT250
     FM251400 30005KT P6SM SKC=



000
FTUS44 KJAN 250500
TAFMEI
TAF
KMEI 250529Z 2506/2606 VRB03KT P6SM SKC
     FM251100 VRB03KT 6SM BR SKC
     FM251400 32006KT P6SM SKC=



000
FTUS44 KJAN 250500
TAFGWO
TAF
KGWO 250529Z 2506/2606 VRB02KT P6SM SCT250
     FM251100 VRB03KT 6SM BR SCT250
     FM251400 26006KT P6SM SKC=



000
FTUS44 KJAN 250500
TAFGLH
TAF
KGLH 250529Z 2506/2606 VRB02KT P6SM SCT250
     FM251100 VRB03KT 6SM BR SCT250
     FM251400 27008KT P6SM SKC=



000
FTUS44 KJAN 250500
TAFHBG
TAF
KHBG 250529Z 2506/2606 VRB03KT P6SM SKC
     FM251100 00000KT 6SM BR SKC
     FM251400 34005KT P6SM SKC=



000
FTUS44 KJAN 242300
TAFGLH
TAF
KGLH 242332Z 2500/2524 VRB04KT P6SM SCT250
     FM251100 VRB04KT 6SM BR SCT250
     FM251400 27008KT P6SM SKC=



000
FTUS44 KJAN 242300
TAFMEI
TAF
KMEI 242332Z 2500/2524 35003KT P6SM SCT250
     FM251100 VRB03KT 6SM BR FEW250
     FM251400 32006KT P6SM SKC=



000
FTUS44 KJAN 242300
TAFHBG
TAF
KHBG 242332Z 2500/2524 34003KT P6SM FEW250
     FM251100 00000KT 6SM BR FEW250
     FM251400 34005KT P6SM SKC=



000
FTUS44 KJAN 242300
TAFJAN
TAF
KJAN 242332Z 2500/2524 VRB03KT P6SM SCT250
     FM251100 VRB03KT 6SM BR SCT250
     FM251400 30005KT P6SM SKC=



000
FTUS44 KJAN 242300
TAFGWO
TAF
KGWO 242332Z 2500/2524 VRB03KT P6SM SCT250
     FM251100 VRB04KT 6SM BR SCT250
     FM251400 26006KT P6SM SKC=



000
FTUS44 KJAN 241700
TAFJAN
TAF
KJAN 241720Z 2418/2518 35006KT P6SM SKC
     FM250800 00000KT 4SM BR SKC
     FM251400 34006KT P6SM SKC=



000
FTUS44 KJAN 241700
TAFGWO
TAF
KGWO 241720Z 2418/2518 34005KT P6SM SKC
     FM250900 18002KT 5SM BR SKC
     FM251400 24002KT P6SM SKC=



000
FTUS44 KJAN 241700
TAFHBG
TAF
KHBG 241720Z 2418/2518 35006KT P6SM SKC
     FM250900 00000KT 4SM BR SKC
     FM251400 35005KT P6SM SKC=



000
FTUS44 KJAN 241700
TAFMEI
TAF
KMEI 241720Z 2418/2518 35007KT P6SM SKC
     FM250900 00000KT 4SM BR SKC
     FM251400 34005KT P6SM SKC=



000
FTUS44 KJAN 241700
TAFGLH
TAF
KGLH 241720Z 2418/2518 33006KT P6SM SKC
     FM250900 18002KT 5SM BR SKC
     FM251200 24002KT P6SM SKC=



000
FTUS44 KJAN 241300 AAC
TAFGLH
TAF AMD
KGLH 241354Z 2414/2512 33006KT P6SM SKC=



000
FTUS44 KJAN 241300 AAC
TAFGWO
TAF AMD
KGWO 241353Z 2414/2512 34005KT P6SM SKC=



000
FTUS44 KJAN 241300 AAB
TAFGWO
TAF AMD
KGWO 241316Z 2413/2512 00000KT 3SM BR SCT003
      TEMPO 2413/2414 1/4SM FG VV003
     FM241400 34005KT P6SM SKC=



000
FTUS44 KJAN 241300 AAB
TAFGLH
TAF AMD
KGLH 241315Z 2413/2512 34003KT 3SM BR SKC
      TEMPO 2413/2414 1SM BR
     FM241400 33006KT P6SM SKC=



000
FTUS44 KJAN 241200 AAA
TAFGWO
TAF AMD
KGWO 241225Z 2412/2512 00000KT 2SM BR SCT003
      TEMPO 2413/2414 1/4SM FG VV003
     FM241400 34005KT P6SM SKC=



000
FTUS44 KJAN 241200 AAA
TAFGLH
TAF AMD
KGLH 241224Z 2412/2512 34003KT 5SM BR SKC
      TEMPO 2413/2414 1SM BR
     FM241400 33006KT P6SM SKC=



000
FTUS44 KJAN 241100
TAFJAN
TAF
KJAN 241120Z 2412/2512 35003KT 5SM BR FEW250
     FM241400 35006KT P6SM SKC=



000
FTUS44 KJAN 241100
TAFHBG
TAF
KHBG 241120Z 2412/2512 34003KT P6SM FEW250
     FM241600 35006KT P6SM SKC=



000
FTUS44 KJAN 241100
TAFGLH
TAF
KGLH 241120Z 2412/2512 34003KT 5SM BR SKC
     FM241400 33006KT P6SM SKC=



000
FTUS44 KJAN 241100
TAFMEI
TAF
KMEI 241120Z 2412/2512 35003KT P6SM SCT250
     FM241600 35007KT P6SM SKC=



000
FTUS44 KJAN 241100
TAFGWO
TAF
KGWO 241120Z 2412/2512 00000KT 2SM BR SCT003
      TEMPO 2412/2413 1/4SM FG VV003
     FM241400 34005KT P6SM SKC=



000
FTUS44 KJAN 241000 AAD
TAFGWO
TAF AMD
KGWO 241033Z 2411/2506 00000KT 3SM BR FEW120 SCT250
     FM241600 34006KT P6SM SKC=



000
FTUS44 KJAN 241000 AAD
TAFGLH
TAF AMD
KGLH 241028Z 2410/2506 34003KT 3SM BR FEW250
     FM241600 34006KT P6SM SKC=



000
FTUS44 KJAN 240900 AAB
TAFJAN
TAF AMD
KJAN 240902Z 2409/2506 00000KT P6SM FEW250
     FM241500 35006KT P6SM SKC=



000
FTUS44 KJAN 240900 AAC
TAFGLH
TAF AMD
KGLH 240902Z 2409/2506 34003KT P6SM FEW250
     FM241600 34006KT P6SM SKC=



000
FTUS44 KJAN 240900 AAC
TAFGWO
TAF AMD
KGWO 240902Z 2409/2506 00000KT P6SM FEW110 SCT250
     FM241600 34006KT P6SM SKC=



000
FTUS44 KJAN 240800 AAA
TAFJAN
TAF AMD
KJAN 240858Z 2409/2506 00000KT P6SM FEW250
      TEMPO 2409/2412 4SM BR
     FM241500 35006KT P6SM SKC=



000
FTUS44 KJAN 240800 AAB
TAFGWO
TAF AMD
KGWO 240848Z 2409/2506 00000KT P6SM BKN250
      TEMPO 2409/2412 3SM BR
     FM241600 34006KT P6SM SKC=



000
FTUS44 KJAN 240800 AAB
TAFGLH
TAF AMD
KGLH 240847Z 2409/2506 34003KT P6SM FEW250
      TEMPO 2409/2412 3SM BR
     FM241600 34006KT P6SM SKC=



000
FTUS44 KJAN 240700 AAA
TAFGWO
TAF AMD
KGWO 240708Z 2407/2506 00000KT P6SM SCT250
      TEMPO 2407/2411 3SM BR
     FM241600 34006KT P6SM SKC=



000
FTUS44 KJAN 240700 AAA
TAFGLH
TAF AMD
KGLH 240708Z 2407/2506 34003KT P6SM SCT250
      TEMPO 2407/2411 3SM BR
     FM241600 34006KT P6SM SKC=



000
FTUS44 KJAN 240600 AAA
TAFJAN
TAF AMD
KJAN 240629Z 2406/2506 00000KT 6SM BR FEW250
      TEMPO 2406/2410 3SM BR
     FM241500 35006KT P6SM SKC=



000
FTUS44 KJAN 240500
TAFGWO
TAF
KGWO 240537Z 2406/2506 01003KT 6SM BR FEW250
      TEMPO 2406/2410 2SM BR
     FM241600 34006KT P6SM SKC=



000
FTUS44 KJAN 240500
TAFGLH
TAF
KGLH 240536Z 2406/2506 03003KT 6SM BR FEW250
      TEMPO 2406/2410 2SM BR
     FM241600 34006KT P6SM SKC=



000
FTUS44 KJAN 240500
TAFGWO
TAF
KGWO 240536Z 2406/2506 01003KT 6SM BR FEW250
      TEMPO 2406/2410 3SM BR
     FM241600 34006KT P6SM SKC=



000
FTUS44 KJAN 240500
TAFGLH
TAF
KGLH 240520Z 2406/2506 03003KT P6SM FEW250
     FM241600 34006KT P6SM SKC=



000
FTUS44 KJAN 240500
TAFHBG
TAF
KHBG 240520Z 2406/2506 33003KT P6SM SCT250
     FM241600 35006KT P6SM SKC=



000
FTUS44 KJAN 240500
TAFMEI
TAF
KMEI 240520Z 2406/2506 36003KT P6SM SCT250
     FM241500 35007KT P6SM SKC=



000
FTUS44 KJAN 240500
TAFJAN
TAF
KJAN 240520Z 2406/2506 35003KT P6SM FEW250
     FM241500 35006KT P6SM SKC=



000
FTUS44 KJAN 240500
TAFGWO
TAF
KGWO 240520Z 2406/2506 01003KT P6SM FEW250
      TEMPO 2408/2412 3SM BR
     FM241600 34006KT P6SM SKC=



000
FTUS44 KJAN 232300 RRA
TAFHBG
TAF
KHBG 232345Z 2400/2424 35003KT P6SM FEW150 BKN250
     FM241600 35006KT P6SM SCT250=



000
FTUS44 KJAN 232300 RRA
TAFGWO
TAF
KGWO 232345Z 2400/2424 01005KT P6SM FEW150 BKN250
     FM241600 35006KT P6SM FEW250=



000
FTUS44 KJAN 232300 RRA
TAFMEI
TAF
KMEI 232345Z 2400/2424 34005KT P6SM FEW150 BKN250
     FM241500 35006KT P6SM FEW250=



000
FTUS44 KJAN 232300 RRA
TAFJAN
TAF
KJAN 232345Z 2400/2424 36005KT P6SM FEW150 BKN250
     FM241600 36006KT P6SM FEW250=



000
FTUS44 KJAN 232300 RRA
TAFGLH
TAF
KGLH 232345Z 2400/2424 35003KT P6SM FEW150 BKN250
     FM241600 35006KT P6SM FEW060=



000
FTUS44 KJAN 231700
TAFHBG
TAF
KHBG 231725Z 2318/2418 01005KT P6SM FEW250=



000
FTUS44 KJAN 231700
TAFGLH
TAF
KGLH 231725Z 2318/2418 36006KT P6SM BKN250=



000
FTUS44 KJAN 231700
TAFMEI
TAF
KMEI 231725Z 2318/2418 01005KT P6SM SCT250=



000
FTUS44 KJAN 231700
TAFJAN
TAF
KJAN 231725Z 2318/2418 35006KT P6SM SCT250=



000
FTUS44 KJAN 231700
TAFGWO
TAF
KGWO 231725Z 2318/2418 36005KT P6SM BKN250=



000
FTUS44 KJAN 231100
TAFGLH
TAF
KGLH 231120Z 2312/2412 01003KT P6SM SCT250
     FM231500 36006KT P6SM FEW150 SCT250=



000
FTUS44 KJAN 231100
TAFGWO
TAF
KGWO 231120Z 2312/2412 00000KT 4SM BR SCT250
     FM231400 36005KT P6SM FEW150 SCT250=



000
FTUS44 KJAN 231100
TAFJAN
TAF
KJAN 231120Z 2312/2412 04003KT P6SM FEW250
     FM231430 01006KT P6SM SCT250=



000
FTUS44 KJAN 231100
TAFMEI
TAF
KMEI 231120Z 2312/2412 36003KT P6SM SKC
     FM231430 01006KT P6SM SCT250=



000
FTUS44 KJAN 231100
TAFHBG
TAF
KHBG 231120Z 2312/2412 36003KT P6SM SKC
     FM231500 01006KT P6SM FEW250=



000
FTUS44 KJAN 231000 AAB
TAFGWO
TAF AMD
KGWO 231028Z 2310/2406 00000KT P6SM SCT250
     FM231430 36005KT P6SM FEW150 SCT250=



000
FTUS44 KJAN 230800 AAA
TAFGWO
TAF AMD
KGWO 230841Z 2309/2406 03003KT 3SM BR FEW250
     FM231300 36005KT P6SM FEW120 SCT250=



000
FTUS44 KJAN 230500
TAFJAN
TAF
KJAN 230520Z 2306/2406 03003KT P6SM SKC
     FM231430 01006KT P6SM FEW250=



000
FTUS44 KJAN 230500
TAFGLH
TAF
KGLH 230520Z 2306/2406 02003KT P6SM SKC
     FM231500 36006KT P6SM FEW120 SCT250=



000
FTUS44 KJAN 230500
TAFGWO
TAF
KGWO 230520Z 2306/2406 03003KT P6SM SKC
     FM231500 36005KT P6SM FEW120 SCT250=



000
FTUS44 KJAN 230500
TAFHBG
TAF
KHBG 230520Z 2306/2406 00000KT P6SM SKC
     FM231430 01006KT P6SM FEW250=



000
FTUS44 KJAN 230500
TAFMEI
TAF
KMEI 230520Z 2306/2406 00000KT P6SM SKC
     FM231430 01006KT P6SM FEW250=



000
FTUS44 KJAN 222300
TAFMEI
TAF
KMEI 222320Z 2300/2324 02009KT P6SM SKC=



000
FTUS44 KJAN 222300
TAFJAN
TAF
KJAN 222320Z 2300/2324 02005KT P6SM SKC=



000
FTUS44 KJAN 222300
TAFHBG
TAF
KHBG 222320Z 2300/2324 03005KT P6SM SKC=



000
FTUS44 KJAN 222300
TAFGWO
TAF
KGWO 222320Z 2300/2324 03005KT P6SM SKC=



000
FTUS44 KJAN 222300
TAFGLH
TAF
KGLH 222320Z 2300/2324 02007KT P6SM SKC=



    US Dept of Commerce
    National Oceanic and Atmospheric Administration
    National Weather Service
    1325 East West Highway
    Silver Spring, MD 20910
    Page Author: NWS Internet Services Team
Disclaimer
Information Quality
Credits
Glossary
Privacy Policy
Freedom of Information Act (FOIA)
About Us
Career Opportunities